Time;durP1;ratioP1;P1;durP2;ratioP2;P2;SDS_P1;SDS_P2;PMS_P1;PMS_P2;Temp;Humidity;BMP_temperature;BMP_pressure;BME280_temperature;BME280_humidity;BME280_pressure;Samples;Min_cycle;Max_cycle;Signal;HPM_P1;HPM_P2
2022/07/03 00:00:16;;;;;;;;;;;28.20;40.70;;;;;;5032666;28;20364;-62
2022/07/03 00:02:42;;;;;;;;;;;28.10;40.60;;;;;;5046002;28;19909;-62
2022/07/03 00:05:07;;;;;;;;;;;28.10;40.60;;;;;;5052557;28;19956;-62
2022/07/03 00:07:33;;;;;;;;;;;28.10;40.70;;;;;;5050827;28;19916;-62
2022/07/03 00:09:58;;;;;;;;;;;28.10;40.60;;;;;;5052126;28;20380;-62
2022/07/03 00:12:24;;;;;;;;;;;28.10;40.60;;;;;;5052056;28;20050;-62
2022/07/03 00:14:50;;;;;;;;;;;28.10;40.60;;;;;;5052580;28;19935;-62
2022/07/03 00:17:16;;;;;;;;;;;28.10;40.60;;;;;;5051392;28;19912;-62
2022/07/03 00:19:41;;;;;;;;;;;28.20;41.40;;;;;;5052127;28;19916;-62
2022/07/03 00:22:07;;;;;;;;;;;28.10;40.60;;;;;;5051981;28;19909;-62
2022/07/03 00:24:37;;;;;;;;;;;28.10;40.50;;;;;;5052048;28;20027;-62
2022/07/03 00:27:03;;;;;;;;;;;28.10;40.50;;;;;;5047733;28;19932;-62
2022/07/03 00:29:37;;;;;;;;;;;28.10;40.60;;;;;;5030888;28;20357;-62
2022/07/03 00:32:02;;;;;;;;;;;28.10;40.60;;;;;;5037912;28;19913;-62
2022/07/03 00:34:28;;;;;;;;;;;28.10;40.60;;;;;;5031226;28;19974;-62
2022/07/03 00:36:53;;;;;;;;;;;28.10;40.60;;;;;;5049413;28;19916;-62
2022/07/03 00:39:19;;;;;;;;;;;28.10;40.60;;;;;;5052572;28;19916;-62
2022/07/03 00:41:45;;;;;;;;;;;28.10;40.60;;;;;;5055842;28;20026;-62
2022/07/03 00:44:10;;;;;;;;;;;28.10;40.50;;;;;;5056200;28;19913;-62
2022/07/03 00:46:36;;;;;;;;;;;28.10;40.50;;;;;;5055220;28;19920;-62
2022/07/03 00:49:02;;;;;;;;;;;28.10;40.50;;;;;;5054718;28;19942;-62
2022/07/03 00:51:28;;;;;;;;;;;28.10;40.50;;;;;;5054238;28;19916;-62
2022/07/03 00:53:55;;;;;;;;;;;28.10;40.60;;;;;;5054496;28;19999;-62
2022/07/03 00:56:28;;;;;;;;;;;28.10;40.60;;;;;;5054735;28;20359;-62
2022/07/03 00:58:54;;;;;;;;;;;28.10;40.60;;;;;;5054556;28;20349;-62
2022/07/03 01:01:19;;;;;;;;;;;28.10;40.60;;;;;;5037984;28;19915;-62
2022/07/03 01:03:45;;;;;;;;;;;28.00;40.50;;;;;;5054741;28;19993;-62
2022/07/03 01:06:12;;;;;;;;;;;28.00;40.50;;;;;;5054440;28;19916;-62
2022/07/03 01:08:42;;;;;;;;;;;28.00;40.50;;;;;;5054168;28;20016;-62
2022/07/03 01:11:14;;;;;;;;;;;28.00;40.50;;;;;;5050849;28;20323;-62
2022/07/03 01:13:55;;;;;;;;;;;28.00;40.50;;;;;;5034162;28;19913;-62
2022/07/03 01:16:21;;;;;;;;;;;28.00;40.50;;;;;;5049790;28;20419;-62
2022/07/03 01:18:50;;;;;;;;;;;28.00;40.40;;;;;;5034585;28;19917;-62
2022/07/03 01:21:41;;;;;;;;;;;28.00;40.50;;;;;;5034389;28;20373;-62
2022/07/03 01:24:19;;;;;;;;;;;28.00;40.40;;;;;;5035603;28;19910;-62
2022/07/03 01:26:45;;;;;;;;;;;27.90;40.40;;;;;;5054637;28;19999;-62
2022/07/03 01:29:13;;;;;;;;;;;27.90;40.40;;;;;;5054141;28;19909;-63
2022/07/03 01:31:39;;;;;;;;;;;27.90;40.50;;;;;;5053044;28;19963;-63
2022/07/03 01:34:06;;;;;;;;;;;27.90;40.40;;;;;;5053994;28;19908;-62
2022/07/03 01:36:31;;;;;;;;;;;27.90;40.40;;;;;;5053793;28;19916;-62
2022/07/03 01:38:57;;;;;;;;;;;27.90;40.40;;;;;;5055251;28;19908;-62
2022/07/03 01:41:22;;;;;;;;;;;27.90;40.30;;;;;;5053774;28;20376;-62
2022/07/03 01:43:48;;;;;;;;;;;27.90;40.20;;;;;;5054872;28;19916;-62
2022/07/03 01:46:14;;;;;;;;;;;27.90;40.40;;;;;;5053865;28;19913;-62
2022/07/03 01:48:41;;;;;;;;;;;27.90;40.20;;;;;;5050342;28;19913;-62
2022/07/03 01:51:06;;;;;;;;;;;27.90;40.20;;;;;;5032620;28;20288;-62
2022/07/03 01:53:32;;;;;;;;;;;27.90;40.20;;;;;;5034687;28;19909;-62
2022/07/03 01:56:00;;;;;;;;;;;27.80;40.30;;;;;;5034932;28;19909;-62
2022/07/03 01:58:26;;;;;;;;;;;27.80;40.30;;;;;;5033373;28;19909;-63
2022/07/03 02:00:54;;;;;;;;;;;27.80;40.20;;;;;;5059066;28;19909;-63
2022/07/03 02:03:30;;;;;;;;;;;27.80;40.20;;;;;;5052320;28;19999;-63
2022/07/03 02:06:02;;;;;;;;;;;27.90;40.10;;;;;;5053318;28;20353;-62
2022/07/03 02:08:33;;;;;;;;;;;27.80;40.20;;;;;;5054271;28;20387;-62
2022/07/03 02:11:02;;;;;;;;;;;27.80;40.40;;;;;;5053280;28;20018;-62
2022/07/03 02:13:28;;;;;;;;;;;27.80;40.20;;;;;;5054232;28;19908;-62
2022/07/03 02:15:53;;;;;;;;;;;27.80;40.20;;;;;;5054510;28;20373;-62
2022/07/03 02:18:25;;;;;;;;;;;27.80;40.20;;;;;;5052015;28;20396;-62
2022/07/03 02:20:56;;;;;;;;;;;27.80;40.00;;;;;;5053172;28;20368;-62
2022/07/03 02:23:22;;;;;;;;;;;27.80;40.20;;;;;;5052807;28;19951;-62
2022/07/03 02:25:48;;;;;;;;;;;27.80;40.10;;;;;;5053022;28;19990;-62
2022/07/03 02:28:18;;;;;;;;;;;27.80;40.10;;;;;;5036124;28;19920;-62
2022/07/03 02:30:43;;;;;;;;;;;27.80;40.00;;;;;;5054374;28;20380;-62
2022/07/03 02:33:09;;;;;;;;;;;27.70;40.10;;;;;;5051900;28;19989;-62
2022/07/03 02:35:34;;;;;;;;;;;27.70;40.30;;;;;;5052643;28;19908;-62
2022/07/03 02:38:10;;;;;;;;;;;27.70;40.20;;;;;;5049986;28;19915;-62
2022/07/03 02:40:54;;;;;;;;;;;27.70;40.30;;;;;;5034033;28;19979;-62
2022/07/03 02:43:38;;;;;;;;;;;27.70;40.10;;;;;;5033752;28;20003;-62
2022/07/03 02:49:19;;;;;;;;;;;27.70;40.20;;;;;;5040648;28;19923;-62
2022/07/03 02:51:48;;;;;;;;;;;27.70;40.20;;;;;;5040183;28;19963;-62
2022/07/03 02:54:14;;;;;;;;;;;27.70;40.30;;;;;;5052525;28;20362;-62
2022/07/03 02:56:39;;;;;;;;;;;27.70;40.20;;;;;;5052228;28;19992;-62
2022/07/03 02:59:19;;;;;;;;;;;27.70;40.10;;;;;;5053648;28;19912;-62
2022/07/03 03:01:58;;;;;;;;;;;27.60;40.30;;;;;;5051133;28;20021;-62
2022/07/03 03:04:27;;;;;;;;;;;27.70;40.10;;;;;;5052287;28;19913;-62
2022/07/03 03:07:02;;;;;;;;;;;27.60;40.10;;;;;;5051969;28;19995;-62
2022/07/03 03:09:31;;;;;;;;;;;27.60;40.20;;;;;;5053095;28;19920;-62
2022/07/03 03:11:59;;;;;;;;;;;27.60;40.30;;;;;;5053091;28;20340;-62
2022/07/03 03:14:24;;;;;;;;;;;27.60;40.70;;;;;;5052110;28;19913;-62
2022/07/03 03:16:53;;;;;;;;;;;27.60;40.20;;;;;;5047536;28;19963;-62
2022/07/03 03:19:22;;;;;;;;;;;27.60;40.20;;;;;;5033446;28;20048;-62
2022/07/03 03:21:54;;;;;;;;;;;27.70;40.20;;;;;;5031941;28;20328;-62
2022/07/03 03:24:19;;;;;;;;;;;27.60;40.10;;;;;;5034458;28;19919;-62
2022/07/03 03:26:44;;;;;;;;;;;27.60;40.20;;;;;;5050314;28;20029;-62
2022/07/03 03:29:10;;;;;;;;;;;27.60;40.10;;;;;;5053020;28;19909;-62
2022/07/03 03:31:35;;;;;;;;;;;27.60;40.20;;;;;;5050646;28;19975;-62
2022/07/03 03:34:01;;;;;;;;;;;27.60;40.30;;;;;;5053153;28;19957;-62
2022/07/03 03:36:26;;;;;;;;;;;27.60;40.30;;;;;;5051597;28;20296;-62
2022/07/03 03:38:52;;;;;;;;;;;27.60;40.10;;;;;;5052548;28;19999;-62
2022/07/03 03:41:18;;;;;;;;;;;27.60;40.00;;;;;;5051652;28;19908;-62
2022/07/03 03:43:43;;;;;;;;;;;27.60;40.00;;;;;;5052424;28;20707;-62
2022/07/03 03:46:09;;;;;;;;;;;27.60;40.10;;;;;;5053037;28;19955;-61
2022/07/03 03:48:34;;;;;;;;;;;27.60;40.10;;;;;;5051759;28;19995;-62
2022/07/03 03:51:00;;;;;;;;;;;27.60;40.10;;;;;;5051401;28;19912;-62
2022/07/03 03:53:26;;;;;;;;;;;27.60;40.10;;;;;;5052369;28;19909;-62
2022/07/03 03:55:54;;;;;;;;;;;27.60;40.00;;;;;;5051430;28;19908;-62
2022/07/03 03:58:19;;;;;;;;;;;27.50;40.20;;;;;;5052346;28;19958;-62
2022/07/03 04:00:45;;;;;;;;;;;27.50;40.10;;;;;;5052337;28;19913;-62
2022/07/03 04:03:10;;;;;;;;;;;27.50;40.10;;;;;;5051489;28;19915;-62
2022/07/03 04:05:36;;;;;;;;;;;27.50;40.20;;;;;;5048269;28;19955;-62
2022/07/03 04:08:01;;;;;;;;;;;27.50;40.20;;;;;;5051417;28;20407;-62
2022/07/03 04:10:27;;;;;;;;;;;27.50;40.20;;;;;;5052269;28;19921;-62
2022/07/03 04:12:52;;;;;;;;;;;27.50;40.00;;;;;;5052006;28;19913;-62
2022/07/03 04:15:18;;;;;;;;;;;27.50;40.10;;;;;;5050694;28;19982;-62
2022/07/03 04:17:43;;;;;;;;;;;27.50;40.10;;;;;;5051104;28;19936;-62
2022/07/03 04:20:09;;;;;;;;;;;27.50;40.20;;;;;;5052695;28;20361;-62
2022/07/03 04:22:34;;;;;;;;;;;27.50;40.20;;;;;;5052298;28;20321;-62
2022/07/03 04:25:00;;;;;;;;;;;27.50;40.10;;;;;;5052146;28;19909;-61
2022/07/03 04:27:25;;;;;;;;;;;27.50;40.30;;;;;;5051891;28;19916;-62
2022/07/03 04:29:50;;;;;;;;;;;27.40;40.40;;;;;;5050967;28;19916;-62
2022/07/03 04:32:16;;;;;;;;;;;27.30;40.40;;;;;;5049926;28;19924;-62
2022/07/03 04:34:41;;;;;;;;;;;27.30;40.60;;;;;;5050761;28;20003;-62
2022/07/03 04:37:07;;;;;;;;;;;27.30;40.60;;;;;;5051723;28;19912;-62
2022/07/03 04:39:32;;;;;;;;;;;27.30;40.70;;;;;;5036534;28;19909;-62
2022/07/03 04:41:58;;;;;;;;;;;27.20;40.70;;;;;;5031984;28;20012;-62
2022/07/03 04:44:23;;;;;;;;;;;27.20;40.80;;;;;;5032045;28;19913;-62
2022/07/03 04:46:49;;;;;;;;;;;27.20;40.90;;;;;;5029959;28;20218;-62
2022/07/03 04:49:14;;;;;;;;;;;27.20;40.80;;;;;;5036087;28;19913;-62
2022/07/03 04:51:39;;;;;;;;;;;27.20;40.90;;;;;;5050052;28;19956;-62
2022/07/03 04:54:05;;;;;;;;;;;27.20;40.90;;;;;;5052077;28;19943;-62
2022/07/03 04:56:30;;;;;;;;;;;27.20;40.90;;;;;;5051901;28;19913;-62
2022/07/03 04:58:56;;;;;;;;;;;27.20;40.80;;;;;;5051847;28;19912;-62
2022/07/03 05:01:21;;;;;;;;;;;27.20;40.90;;;;;;5050613;28;19913;-62
2022/07/03 05:03:47;;;;;;;;;;;27.20;40.90;;;;;;5051152;28;19916;-62
2022/07/03 05:06:12;;;;;;;;;;;27.10;40.90;;;;;;5050485;28;19961;-62
2022/07/03 05:08:37;;;;;;;;;;;27.10;40.90;;;;;;5050004;28;19909;-62
2022/07/03 05:11:03;;;;;;;;;;;27.10;40.90;;;;;;5051670;28;19924;-62
2022/07/03 05:13:28;;;;;;;;;;;27.10;40.90;;;;;;5051403;28;19913;-62
2022/07/03 05:15:54;;;;;;;;;;;27.20;40.90;;;;;;5050665;28;19931;-62
2022/07/03 05:18:19;;;;;;;;;;;27.20;40.80;;;;;;5048566;28;19974;-62
2022/07/03 05:20:45;;;;;;;;;;;27.10;40.80;;;;;;5050364;28;20300;-62
2022/07/03 05:23:10;;;;;;;;;;;27.10;40.90;;;;;;5051401;28;20452;-62
2022/07/03 05:25:36;;;;;;;;;;;27.10;41.00;;;;;;5065393;28;19919;-62
2022/07/03 05:28:02;;;;;;;;;;;27.10;41.10;;;;;;5058474;28;19910;-62
2022/07/03 05:30:27;;;;;;;;;;;27.20;41.10;;;;;;5035371;28;19913;-62
2022/07/03 05:32:52;;;;;;;;;;;27.30;40.90;;;;;;5033157;28;20321;-62
2022/07/03 05:35:18;;;;;;;;;;;27.40;40.70;;;;;;5033968;28;19913;-62
2022/07/03 05:37:43;;;;;;;;;;;27.40;40.40;;;;;;5035197;28;20011;-62
2022/07/03 05:40:09;;;;;;;;;;;27.50;40.50;;;;;;5053987;28;19962;-62
2022/07/03 05:42:34;;;;;;;;;;;27.50;40.40;;;;;;5053623;28;20015;-62
2022/07/03 05:45:00;;;;;;;;;;;27.50;40.40;;;;;;5055162;28;19909;-62
2022/07/03 05:47:26;;;;;;;;;;;27.60;40.50;;;;;;5052642;28;19916;-62
2022/07/03 05:49:51;;;;;;;;;;;27.50;40.40;;;;;;5055138;28;20387;-62
2022/07/03 05:52:17;;;;;;;;;;;27.50;40.50;;;;;;5054909;28;20000;-62
2022/07/03 05:54:42;;;;;;;;;;;27.50;40.50;;;;;;5054880;28;19954;-62
2022/07/03 05:57:07;;;;;;;;;;;27.60;40.60;;;;;;5054639;28;19909;-62
2022/07/03 05:59:33;;;;;;;;;;;27.50;40.60;;;;;;5054487;28;20410;-62
2022/07/03 06:01:58;;;;;;;;;;;27.50;41.30;;;;;;5052328;28;19950;-62
2022/07/03 06:04:24;;;;;;;;;;;27.50;40.70;;;;;;5053401;28;19935;-62
2022/07/03 06:06:49;;;;;;;;;;;27.50;40.90;;;;;;5052123;28;19917;-62
2022/07/03 06:09:15;;;;;;;;;;;27.50;41.30;;;;;;5053668;28;20436;-62
2022/07/03 06:11:40;;;;;;;;;;;27.50;41.20;;;;;;5052890;28;19921;-62
2022/07/03 06:14:06;;;;;;;;;;;27.50;41.20;;;;;;5053324;28;19909;-62
2022/07/03 06:16:32;;;;;;;;;;;27.50;41.10;;;;;;5053980;28;20146;-62
2022/07/03 06:18:58;;;;;;;;;;;27.60;41.00;;;;;;5051632;28;19916;-62
2022/07/03 06:21:23;;;;;;;;;;;27.60;41.00;;;;;;5054630;28;19912;-62
2022/07/03 06:23:48;;;;;;;;;;;27.60;41.00;;;;;;5052885;28;19955;-62
2022/07/03 06:26:14;;;;;;;;;;;27.60;41.00;;;;;;5053073;28;20276;-62
2022/07/03 06:28:40;;;;;;;;;;;27.60;41.00;;;;;;5052812;28;20323;-62
2022/07/03 06:31:05;;;;;;;;;;;27.60;41.00;;;;;;5054152;28;19919;-62
2022/07/03 06:33:31;;;;;;;;;;;27.60;41.00;;;;;;5053157;28;19913;-62
2022/07/03 06:35:56;;;;;;;;;;;27.60;41.00;;;;;;5054094;28;20058;-62
2022/07/03 06:38:21;;;;;;;;;;;27.50;41.10;;;;;;5047566;28;20549;-62
2022/07/03 06:40:47;;;;;;;;;;;27.50;41.20;;;;;;5034040;28;19909;-62
2022/07/03 06:43:12;;;;;;;;;;;27.60;41.20;;;;;;5032621;28;19979;-62
2022/07/03 06:45:38;;;;;;;;;;;27.60;41.20;;;;;;5033919;28;19916;-62
2022/07/03 06:48:03;;;;;;;;;;;27.60;41.20;;;;;;5032994;28;19920;-62
2022/07/03 06:50:29;;;;;;;;;;;27.60;41.20;;;;;;5033936;28;19921;-62
2022/07/03 06:52:54;;;;;;;;;;;27.60;41.30;;;;;;5033445;28;19965;-62
2022/07/03 06:55:20;;;;;;;;;;;27.60;41.20;;;;;;5049846;28;19920;-62
2022/07/03 06:57:45;;;;;;;;;;;27.60;42.40;;;;;;5051856;28;20341;-62
2022/07/03 07:00:11;;;;;;;;;;;27.60;41.90;;;;;;5053441;28;20015;-62
2022/07/03 07:02:36;;;;;;;;;;;27.50;41.90;;;;;;5052181;28;19971;-62
2022/07/03 07:05:02;;;;;;;;;;;27.50;41.90;;;;;;5052257;28;19916;-62
2022/07/03 07:07:27;;;;;;;;;;;27.60;41.90;;;;;;5051838;28;19965;-62
2022/07/03 07:09:53;;;;;;;;;;;27.60;41.90;;;;;;5053158;28;19921;-62
2022/07/03 07:12:18;;;;;;;;;;;27.60;41.90;;;;;;5053058;28;19964;-62
2022/07/03 07:14:44;;;;;;;;;;;27.60;41.80;;;;;;5054554;28;19912;-62
2022/07/03 07:17:09;;;;;;;;;;;27.60;41.80;;;;;;5062458;28;19913;-62
2022/07/03 07:19:35;;;;;;;;;;;27.60;41.90;;;;;;5053197;28;19909;-62
2022/07/03 07:22:01;;;;;;;;;;;27.60;41.90;;;;;;5051906;28;20004;-62
2022/07/03 07:24:27;;;;;;;;;;;27.70;41.90;;;;;;5053082;28;20379;-62
2022/07/03 07:26:52;;;;;;;;;;;27.70;42.00;;;;;;5051427;28;19916;-62
2022/07/03 07:29:17;;;;;;;;;;;27.70;42.00;;;;;;5048488;28;19966;-62
2022/07/03 07:31:43;;;;;;;;;;;27.70;42.00;;;;;;5047804;28;19928;-62
2022/07/03 07:34:08;;;;;;;;;;;27.60;42.10;;;;;;5052086;28;19984;-63
2022/07/03 07:36:34;;;;;;;;;;;27.60;43.00;;;;;;5052933;28;20280;-63
2022/07/03 07:39:00;;;;;;;;;;;27.50;42.40;;;;;;5051638;28;19913;-62
2022/07/03 07:41:25;;;;;;;;;;;27.60;42.50;;;;;;5052525;28;19912;-62
2022/07/03 07:43:50;;;;;;;;;;;27.60;42.40;;;;;;5052800;28;19913;-62
2022/07/03 07:46:16;;;;;;;;;;;27.60;42.30;;;;;;5034363;28;19913;-62
2022/07/03 07:48:41;;;;;;;;;;;27.60;42.40;;;;;;5030899;28;20012;-62
2022/07/03 07:51:07;;;;;;;;;;;27.60;42.30;;;;;;5032311;28;20011;-62
2022/07/03 07:53:32;;;;;;;;;;;27.70;42.30;;;;;;5050908;28;20135;-62
2022/07/03 07:55:58;;;;;;;;;;;27.70;42.40;;;;;;5052508;28;19963;-62
2022/07/03 07:58:23;;;;;;;;;;;27.70;42.20;;;;;;5055497;28;19935;-62
2022/07/03 08:06:17;;;;;;;;;;;27.70;42.50;;;;;;5042753;28;19982;-62
2022/07/03 08:08:42;;;;;;;;;;;27.80;42.60;;;;;;5040208;28;20436;-62
2022/07/03 08:11:08;;;;;;;;;;;27.80;42.70;;;;;;5051125;28;19923;-62
2022/07/03 08:13:33;;;;;;;;;;;27.80;42.50;;;;;;5050761;28;19991;-62
2022/07/03 08:15:59;;;;;;;;;;;27.80;42.50;;;;;;5052113;28;19962;-62
2022/07/03 08:18:24;;;;;;;;;;;27.80;42.80;;;;;;5049764;28;20284;-62
2022/07/03 08:20:50;;;;;;;;;;;27.80;42.90;;;;;;5052256;28;20337;-62
2022/07/03 08:23:15;;;;;;;;;;;27.80;43.00;;;;;;5051790;28;19909;-62
2022/07/03 08:25:40;;;;;;;;;;;27.80;43.00;;;;;;5052000;28;19913;-62
2022/07/03 08:28:06;;;;;;;;;;;27.80;42.60;;;;;;5051800;28;20005;-62
2022/07/03 08:30:31;;;;;;;;;;;27.90;42.80;;;;;;5052080;28;19909;-62
2022/07/03 08:32:57;;;;;;;;;;;27.90;43.00;;;;;;5050857;28;19924;-62
2022/07/03 08:35:22;;;;;;;;;;;27.90;42.90;;;;;;5049416;28;19909;-62
2022/07/03 08:37:48;;;;;;;;;;;27.90;42.90;;;;;;5048083;28;19947;-62
2022/07/03 08:40:14;;;;;;;;;;;27.90;42.90;;;;;;5051999;28;19913;-62
2022/07/03 08:43:06;;;;;;;;;;;27.90;43.00;;;;;;5044906;28;20347;-62
2022/07/03 08:45:33;;;;;;;;;;;27.90;42.90;;;;;;5069377;28;19912;-62
2022/07/03 08:47:58;;;;;;;;;;;27.90;43.00;;;;;;5029272;28;20321;-62
2022/07/03 08:50:24;;;;;;;;;;;27.90;42.90;;;;;;5040467;28;20312;-62
2022/07/03 08:52:49;;;;;;;;;;;27.90;42.70;;;;;;5030984;28;19913;-62
2022/07/03 08:55:15;;;;;;;;;;;27.90;42.80;;;;;;5031310;28;19917;-62
2022/07/03 08:57:41;;;;;;;;;;;27.90;42.90;;;;;;5029757;28;19913;-62
2022/07/03 09:00:07;;;;;;;;;;;27.90;43.00;;;;;;5033533;28;19915;-62
2022/07/03 09:02:33;;;;;;;;;;;27.90;42.90;;;;;;5033061;28;19955;-62
2022/07/03 09:04:58;;;;;;;;;;;27.90;42.90;;;;;;5037083;28;20386;-62
2022/07/03 09:07:25;;;;;;;;;;;27.90;42.80;;;;;;5037434;28;19913;-62
2022/07/03 09:09:51;;;;;;;;;;;27.90;42.80;;;;;;5054232;28;19974;-62
2022/07/03 09:12:16;;;;;;;;;;;27.90;42.70;;;;;;5054175;28;19916;-62
2022/07/03 09:14:42;;;;;;;;;;;28.00;42.70;;;;;;5054369;28;19974;-62
2022/07/03 09:17:08;;;;;;;;;;;28.00;42.60;;;;;;5051977;28;19913;-62
2022/07/03 09:19:43;;;;;;;;;;;28.00;42.50;;;;;;5046464;28;19952;-63
2022/07/03 09:22:22;;;;;;;;;;;28.00;42.30;;;;;;5042067;28;19917;-62
2022/07/03 09:24:48;;;;;;;;;;;28.10;42.20;;;;;;5053523;28;19916;-62
2022/07/03 09:27:20;;;;;;;;;;;28.00;42.10;;;;;;5050742;28;19917;-62
2022/07/03 09:30:02;;;;;;;;;;;28.10;42.00;;;;;;5058355;28;19989;-63
2022/07/03 09:32:32;;;;;;;;;;;28.10;42.00;;;;;;5062367;28;19963;-62
2022/07/03 09:35:17;;;;;;;;;;;28.10;41.90;;;;;;5053641;28;19917;-62
2022/07/03 09:37:49;;;;;;;;;;;28.10;41.80;;;;;;5053552;28;19913;-62
2022/07/03 09:40:16;;;;;;;;;;;28.10;42.00;;;;;;5051473;28;20427;-62
2022/07/03 09:42:56;;;;;;;;;;;28.10;42.00;;;;;;5058173;28;19962;-63
2022/07/03 09:45:21;;;;;;;;;;;28.10;41.90;;;;;;5053915;28;19952;-62
2022/07/03 09:47:47;;;;;;;;;;;28.10;42.10;;;;;;5053590;28;20388;-63
2022/07/03 09:50:13;;;;;;;;;;;28.20;42.20;;;;;;5054058;28;20376;-62
2022/07/03 09:52:39;;;;;;;;;;;28.20;42.00;;;;;;5054098;28;20367;-63
2022/07/03 09:55:11;;;;;;;;;;;28.20;42.00;;;;;;5054971;28;20391;-63
2022/07/03 09:57:37;;;;;;;;;;;28.20;42.00;;;;;;5053114;28;20312;-63
2022/07/03 10:00:16;;;;;;;;;;;28.20;42.50;;;;;;5053623;28;19913;-63
2022/07/03 10:03:04;;;;;;;;;;;28.20;41.90;;;;;;5032825;28;19979;-63
2022/07/03 10:05:33;;;;;;;;;;;28.20;41.90;;;;;;5051318;28;19917;-62
2022/07/03 10:07:59;;;;;;;;;;;28.10;41.60;;;;;;5037837;28;20391;-62
2022/07/03 10:10:25;;;;;;;;;;;28.10;41.80;;;;;;5052520;28;19959;-62
2022/07/03 10:12:51;;;;;;;;;;;28.10;41.80;;;;;;5051268;28;19928;-62
2022/07/03 10:15:17;;;;;;;;;;;28.10;41.80;;;;;;5047835;28;20180;-63
2022/07/03 10:17:43;;;;;;;;;;;28.10;41.90;;;;;;5042043;28;19909;-63
2022/07/03 10:20:12;;;;;;;;;;;28.10;42.00;;;;;;5051091;28;19909;-62
2022/07/03 10:22:38;;;;;;;;;;;28.00;42.10;;;;;;5035360;28;19963;-63
2022/07/03 10:25:04;;;;;;;;;;;28.00;42.10;;;;;;5032374;28;19917;-63
2022/07/03 10:27:29;;;;;;;;;;;28.00;42.20;;;;;;5032067;28;19913;-63
2022/07/03 10:29:55;;;;;;;;;;;28.00;42.30;;;;;;5034516;28;20357;-63
2022/07/03 10:32:20;;;;;;;;;;;28.00;42.40;;;;;;5049781;28;19940;-62
2022/07/03 10:34:46;;;;;;;;;;;28.00;42.50;;;;;;5038574;28;19920;-63
2022/07/03 10:37:11;;;;;;;;;;;28.10;42.50;;;;;;5052500;28;19909;-62
2022/07/03 10:39:55;;;;;;;;;;;28.10;42.30;;;;;;5052543;28;19913;-62
2022/07/03 10:45:15;;;;;;;;;;;28.10;42.30;;;;;;5042837;28;19963;-62
2022/07/03 10:47:47;;;;;;;;;;;28.10;42.20;;;;;;5051304;28;19952;-62
2022/07/03 10:50:13;;;;;;;;;;;28.10;42.20;;;;;;5051566;28;19966;-62
2022/07/03 10:52:39;;;;;;;;;;;28.20;42.30;;;;;;5053431;28;19917;-63
2022/07/03 10:55:06;;;;;;;;;;;28.20;42.30;;;;;;5049954;28;19924;-63
2022/07/03 10:57:32;;;;;;;;;;;28.20;42.20;;;;;;5032166;28;20378;-63
2022/07/03 10:59:57;;;;;;;;;;;28.20;42.30;;;;;;5033749;28;19913;-63
2022/07/03 11:02:27;;;;;;;;;;;28.20;42.40;;;;;;5031437;28;19909;-63
2022/07/03 11:04:55;;;;;;;;;;;28.30;42.40;;;;;;5039902;28;20483;-63
2022/07/03 11:07:21;;;;;;;;;;;28.20;42.20;;;;;;5050972;28;19913;-62
2022/07/03 11:09:46;;;;;;;;;;;28.20;42.20;;;;;;5049907;28;19916;-62
2022/07/03 11:12:12;;;;;;;;;;;28.20;42.20;;;;;;5051910;28;20099;-63
2022/07/03 11:14:37;;;;;;;;;;;28.20;42.40;;;;;;5050995;28;20323;-62
2022/07/03 11:17:18;;;;;;;;;;;28.20;42.20;;;;;;5048170;28;19917;-62
2022/07/03 11:20:23;;;;;;;;;;;28.20;42.50;;;;;;5042673;28;19917;-62
2022/07/03 11:22:30;;;;;;;;;;;28.20;42.50;;;;;;5050701;28;19917;-62
2022/07/03 11:24:55;;;;;;;;;;;28.20;42.30;;;;;;5049889;28;19916;-63
2022/07/03 11:27:23;;;;;;;;;;;28.30;42.50;;;;;;5047041;28;19921;-62
2022/07/03 11:29:55;;;;;;;;;;;28.30;42.50;;;;;;5049445;28;19908;-62
2022/07/03 11:32:39;;;;;;;;;;;28.30;42.40;;;;;;5051458;28;20015;-62
2022/07/03 11:35:05;;;;;;;;;;;28.30;42.30;;;;;;5045366;28;20048;-62
2022/07/03 11:37:30;;;;;;;;;;;28.30;42.30;;;;;;5045275;28;20479;-62
2022/07/03 11:39:55;;;;;;;;;;;28.20;42.20;;;;;;5049754;28;19917;-62
2022/07/03 11:42:21;;;;;;;;;;;28.20;42.10;;;;;;5048601;28;20284;-62
2022/07/03 11:44:47;;;;;;;;;;;28.30;42.40;;;;;;5056248;28;20342;-62
2022/07/03 11:47:14;;;;;;;;;;;28.30;42.60;;;;;;5071682;28;19915;-62
2022/07/03 11:49:46;;;;;;;;;;;28.30;42.30;;;;;;5071333;28;19912;-62
2022/07/03 11:52:12;;;;;;;;;;;28.30;41.80;;;;;;5070993;28;19912;-62
2022/07/03 11:54:51;;;;;;;;;;;28.40;41.80;;;;;;5054535;28;19916;-63
2022/07/03 11:57:16;;;;;;;;;;;28.40;40.60;;;;;;5057836;28;19918;-63
2022/07/03 11:59:41;;;;;;;;;;;28.50;41.80;;;;;;5072224;28;19909;-63
2022/07/03 12:02:07;;;;;;;;;;;28.50;41.60;;;;;;5049652;28;19913;-63
2022/07/03 12:04:32;;;;;;;;;;;28.50;40.40;;;;;;5052494;28;19909;-63
2022/07/03 12:06:58;;;;;;;;;;;28.50;40.70;;;;;;5036847;28;19916;-63
2022/07/03 12:09:26;;;;;;;;;;;28.40;40.80;;;;;;5047381;28;19994;-63
2022/07/03 12:12:11;;;;;;;;;;;28.40;40.50;;;;;;5050728;28;19916;-63
2022/07/03 12:14:37;;;;;;;;;;;28.40;40.50;;;;;;5031811;28;20173;-62
2022/07/03 12:17:03;;;;;;;;;;;28.40;40.40;;;;;;5031371;28;19909;-63
2022/07/03 12:19:28;;;;;;;;;;;28.40;40.30;;;;;;5036478;28;19923;-63
2022/07/03 12:21:54;;;;;;;;;;;28.40;41.00;;;;;;5051914;28;20266;-63
2022/07/03 12:24:19;;;;;;;;;;;28.50;40.90;;;;;;5052219;28;19956;-63
2022/07/03 12:26:45;;;;;;;;;;;28.50;40.40;;;;;;5033870;28;19913;-63
2022/07/03 12:29:12;;;;;;;;;;;28.60;40.60;;;;;;5034180;28;19909;-62
2022/07/03 12:31:41;;;;;;;;;;;28.70;40.40;;;;;;5051336;28;19916;-62
2022/07/03 12:34:06;;;;;;;;;;;28.80;40.50;;;;;;5060273;28;19931;-63
2022/07/03 12:36:32;;;;;;;;;;;28.80;39.90;;;;;;5071698;28;19908;-62
2022/07/03 12:38:58;;;;;;;;;;;28.80;40.00;;;;;;5059168;28;19919;-63
2022/07/03 12:41:23;;;;;;;;;;;28.90;39.70;;;;;;5052187;28;19909;-63
2022/07/03 12:43:49;;;;;;;;;;;28.90;39.70;;;;;;5050901;28;19920;-62
2022/07/03 12:46:18;;;;;;;;;;;29.00;40.10;;;;;;5051994;28;19912;-62
2022/07/03 12:48:44;;;;;;;;;;;29.00;40.10;;;;;;5048627;28;20313;-63
2022/07/03 12:51:09;;;;;;;;;;;29.00;39.80;;;;;;5034000;28;19913;-63
2022/07/03 12:53:35;;;;;;;;;;;28.90;40.10;;;;;;5050666;28;19988;-63
2022/07/03 12:56:01;;;;;;;;;;;28.90;40.10;;;;;;5042240;28;19916;-63
2022/07/03 13:01:24;;;;;;;;;;;29.00;40.10;;;;;;5031119;28;19917;-62
2022/07/03 13:03:50;;;;;;;;;;;29.00;40.10;;;;;;5037313;28;19913;-63
2022/07/03 13:06:15;;;;;;;;;;;29.00;40.00;;;;;;5046785;28;19919;-63
2022/07/03 13:08:50;;;;;;;;;;;29.10;40.20;;;;;;5057134;28;19959;-63
2022/07/03 13:11:24;;;;;;;;;;;29.00;40.10;;;;;;5055100;28;19912;-63
2022/07/03 13:13:50;;;;;;;;;;;29.10;40.20;;;;;;5049359;28;19924;-63
2022/07/03 13:16:27;;;;;;;;;;;29.10;40.20;;;;;;5051776;28;19909;-63
2022/07/03 13:18:59;;;;;;;;;;;29.10;40.20;;;;;;5048100;28;19917;-63
2022/07/03 13:21:25;;;;;;;;;;;29.10;40.20;;;;;;5050362;28;19913;-63
2022/07/03 13:23:50;;;;;;;;;;;29.10;40.10;;;;;;5050164;28;20333;-63
2022/07/03 13:26:15;;;;;;;;;;;29.20;39.50;;;;;;5050344;28;19920;-63
2022/07/03 13:28:41;;;;;;;;;;;29.00;39.40;;;;;;5036773;28;19959;-63
2022/07/03 13:31:06;;;;;;;;;;;28.90;39.40;;;;;;5031689;28;19955;-63
2022/07/03 13:33:32;;;;;;;;;;;28.80;39.40;;;;;;5029461;28;19910;-63
2022/07/03 13:35:57;;;;;;;;;;;28.90;40.00;;;;;;5030415;28;20361;-63
2022/07/03 13:38:23;;;;;;;;;;;28.90;39.60;;;;;;5053357;28;19932;-63
2022/07/03 13:40:48;;;;;;;;;;;28.90;39.60;;;;;;5051571;28;19952;-63
2022/07/03 13:43:13;;;;;;;;;;;28.90;40.10;;;;;;5051526;28;19917;-63
2022/07/03 13:45:39;;;;;;;;;;;28.90;38.90;;;;;;5051466;28;20003;-62
2022/07/03 13:48:04;;;;;;;;;;;29.00;39.60;;;;;;5051581;28;19918;-63
2022/07/03 13:50:30;;;;;;;;;;;28.90;39.30;;;;;;5053673;28;19909;-63
2022/07/03 13:52:56;;;;;;;;;;;29.00;39.00;;;;;;5054657;28;19923;-63
2022/07/03 13:55:21;;;;;;;;;;;28.90;39.00;;;;;;5054845;28;19951;-63
2022/07/03 13:57:47;;;;;;;;;;;28.90;39.00;;;;;;5053196;28;19909;-63
2022/07/03 14:00:12;;;;;;;;;;;29.00;38.10;;;;;;5055011;28;20399;-63
2022/07/03 14:02:39;;;;;;;;;;;29.00;39.30;;;;;;5053899;28;20360;-63
2022/07/03 14:05:05;;;;;;;;;;;29.00;39.40;;;;;;5054846;28;19912;-64
2022/07/03 14:07:30;;;;;;;;;;;29.00;38.50;;;;;;5033244;28;20353;-63
2022/07/03 14:09:56;;;;;;;;;;;29.10;38.50;;;;;;5054000;28;19924;-63
2022/07/03 14:12:21;;;;;;;;;;;29.10;39.40;;;;;;5054068;28;19921;-63
2022/07/03 14:14:46;;;;;;;;;;;29.20;38.60;;;;;;5053666;28;19916;-63
2022/07/03 14:17:12;;;;;;;;;;;29.20;37.20;;;;;;5053276;28;19909;-63
2022/07/03 14:19:37;;;;;;;;;;;29.00;37.30;;;;;;5054323;28;20003;-63
2022/07/03 14:22:03;;;;;;;;;;;29.10;38.00;;;;;;5052273;28;19963;-62
2022/07/03 14:24:28;;;;;;;;;;;29.10;37.80;;;;;;5053080;28;19920;-62
2022/07/03 14:32:32;;;;;;;;;;;29.10;38.00;;;;;;5053181;28;19920;-62
2022/07/03 14:34:58;;;;;;;;;;;29.20;37.70;;;;;;5054408;28;20391;-62